createdAt,value
2017-09-27T00:00:50.587Z,1018.8
2017-09-27T00:01:52.004Z,1018.8
2017-09-27T00:02:53.423Z,1018.8
2017-09-27T00:03:54.840Z,1018.8
2017-09-27T00:04:56.260Z,1018.8
2017-09-27T00:05:57.674Z,1018.8
2017-09-27T00:06:59.104Z,1018.7
2017-09-27T00:08:00.511Z,1018.7
2017-09-27T00:09:01.928Z,1018.7
2017-09-27T00:10:03.341Z,1018.7
2017-09-27T00:11:04.760Z,1018.7
2017-09-27T00:12:06.181Z,1018.7
2017-09-27T00:13:07.597Z,1018.7
2017-09-27T00:14:09.013Z,1018.7
2017-09-27T00:15:10.433Z,1018.7
2017-09-27T00:16:11.850Z,1018.7
2017-09-27T00:17:13.267Z,1018.7
2017-09-27T00:18:14.682Z,1018.7
2017-09-27T00:19:16.100Z,1018.6
2017-09-27T00:20:17.699Z,1018.6
2017-09-27T00:21:19.119Z,1018.7
2017-09-27T00:22:20.538Z,1018.7
2017-09-27T00:23:21.958Z,1018.7
2017-09-27T00:24:23.375Z,1018.7
2017-09-27T00:25:24.790Z,1018.7
2017-09-27T00:26:26.208Z,1018.7
2017-09-27T00:27:27.623Z,1018.7
2017-09-27T00:28:29.041Z,1018.7
2017-09-27T00:29:30.458Z,1018.7
2017-09-27T00:30:31.890Z,1018.7
2017-09-27T00:31:33.307Z,1018.7
2017-09-27T00:32:34.721Z,1018.6
2017-09-27T00:33:36.137Z,1018.6
2017-09-27T00:34:37.556Z,1018.6
2017-09-27T00:35:38.973Z,1018.6
2017-09-27T00:36:40.389Z,1018.6
2017-09-27T00:37:41.805Z,1018.6
2017-09-27T00:38:43.355Z,1018.6
2017-09-27T00:39:44.773Z,1018.5
2017-09-27T00:40:46.196Z,1018.6
2017-09-27T00:41:47.610Z,1018.5
2017-09-27T00:42:49.031Z,1018.5
2017-09-27T00:43:50.448Z,1018.5
2017-09-27T00:44:51.863Z,1018.5
2017-09-27T00:45:53.285Z,1018.5
2017-09-27T00:46:54.696Z,1018.5
2017-09-27T00:47:56.113Z,1018.5
2017-09-27T00:48:57.528Z,1018.5
2017-09-27T00:49:58.945Z,1018.5
2017-09-27T00:51:00.365Z,1018.5
2017-09-27T00:52:01.783Z,1018.5
2017-09-27T00:53:03.198Z,1018.5
2017-09-27T00:54:04.619Z,1018.6
2017-09-27T00:55:06.035Z,1018.6
2017-09-27T00:56:07.451Z,1018.6
2017-09-27T00:57:08.867Z,1018.6
2017-09-27T00:58:10.286Z,1018.6
2017-09-27T00:59:11.703Z,1018.6
2017-09-27T01:00:13.118Z,1018.6
2017-09-27T01:01:14.536Z,1018.6
2017-09-27T01:02:15.948Z,1018.6
2017-09-27T01:03:17.375Z,1018.6
2017-09-27T01:04:18.782Z,1018.6
2017-09-27T01:05:20.200Z,1018.7
2017-09-27T01:06:21.614Z,1018.7
2017-09-27T01:07:23.034Z,1018.7
2017-09-27T01:08:24.450Z,1018.7
2017-09-27T01:09:25.867Z,1018.7
2017-09-27T01:10:27.283Z,1018.7
2017-09-27T01:11:28.696Z,1018.7
2017-09-27T01:12:30.112Z,1018.7
2017-09-27T01:13:31.528Z,1018.6
2017-09-27T01:14:32.958Z,1018.7
2017-09-27T01:15:34.363Z,1018.6
2017-09-27T01:16:35.776Z,1018.6
2017-09-27T01:17:37.193Z,1018.6
2017-09-27T01:18:38.607Z,1018.6
2017-09-27T01:19:40.026Z,1018.6
2017-09-27T01:20:41.446Z,1018.6
2017-09-27T01:21:42.864Z,1018.5
2017-09-27T01:22:44.284Z,1018.6
2017-09-27T01:23:45.707Z,1018.5
2017-09-27T01:24:47.122Z,1018.6
2017-09-27T01:25:48.537Z,1018.5
2017-09-27T01:26:49.958Z,1018.6
2017-09-27T01:27:51.369Z,1018.6
2017-09-27T01:28:52.783Z,1018.6
2017-09-27T01:29:54.201Z,1018.5
2017-09-27T01:30:55.625Z,1018.5
2017-09-27T01:31:57.045Z,1018.6
2017-09-27T01:32:58.457Z,1018.6
2017-09-27T01:33:59.873Z,1018.6
2017-09-27T01:35:01.292Z,1018.6
2017-09-27T01:36:02.706Z,1018.6
2017-09-27T01:37:04.123Z,1018.6
2017-09-27T01:38:05.537Z,1018.7
2017-09-27T01:39:06.957Z,1018.6
2017-09-27T01:40:08.389Z,1018.7
2017-09-27T01:41:09.806Z,1018.6
2017-09-27T01:42:11.224Z,1018.6
2017-09-27T01:43:12.642Z,1018.6
2017-09-27T01:44:14.062Z,1018.7
2017-09-27T01:45:15.480Z,1018.7
2017-09-27T01:46:16.896Z,1018.6
2017-09-27T01:47:18.312Z,1018.6
2017-09-27T01:48:19.727Z,1018.6
2017-09-27T01:49:21.145Z,1018.6
2017-09-27T01:50:22.560Z,1018.6
2017-09-27T01:51:23.977Z,1018.6
2017-09-27T01:52:25.395Z,1018.6
2017-09-27T01:53:26.810Z,1018.6
2017-09-27T01:54:28.230Z,1018.7
2017-09-27T01:55:29.645Z,1018.7
2017-09-27T01:56:31.061Z,1018.6
2017-09-27T01:57:32.480Z,1018.6
2017-09-27T01:58:33.896Z,1018.6
2017-09-27T01:59:35.314Z,1018.6
2017-09-27T02:00:36.734Z,1018.6
2017-09-27T02:01:38.147Z,1018.6
2017-09-27T02:02:39.564Z,1018.7
2017-09-27T02:03:40.980Z,1018.6
2017-09-27T02:04:42.396Z,1018.7
2017-09-27T02:05:43.819Z,1018.6
2017-09-27T02:06:45.242Z,1018.6
2017-09-27T02:07:46.658Z,1018.6
2017-09-27T02:08:48.077Z,1018.6
2017-09-27T02:09:49.497Z,1018.6
2017-09-27T02:10:50.917Z,1018.6
2017-09-27T02:11:52.335Z,1018.6
2017-09-27T02:12:53.751Z,1018.7
2017-09-27T02:13:55.168Z,1018.7
2017-09-27T02:14:56.582Z,1018.7
2017-09-27T02:15:58.000Z,1018.7
2017-09-27T02:16:59.415Z,1018.7
2017-09-27T02:18:00.835Z,1018.8
2017-09-27T02:19:02.250Z,1018.8
2017-09-27T02:20:03.668Z,1018.8
2017-09-27T02:21:05.083Z,1018.8
2017-09-27T02:22:06.500Z,1018.8
2017-09-27T02:23:07.916Z,1018.7
2017-09-27T02:24:09.332Z,1018.7
2017-09-27T02:25:10.752Z,1018.7
2017-09-27T02:26:12.164Z,1018.7
2017-09-27T02:27:13.586Z,1018.7
2017-09-27T02:28:15.007Z,1018.7
2017-09-27T02:29:16.419Z,1018.7
2017-09-27T02:30:17.837Z,1018.7
2017-09-27T02:31:19.251Z,1018.7
2017-09-27T02:32:20.672Z,1018.7
2017-09-27T02:33:22.091Z,1018.7
2017-09-27T02:34:23.508Z,1018.7
2017-09-27T02:35:24.930Z,1018.7
2017-09-27T02:36:26.346Z,1018.7
2017-09-27T02:37:27.760Z,1018.8
2017-09-27T02:38:29.177Z,1018.7
2017-09-27T02:39:30.599Z,1018.8
2017-09-27T02:40:32.013Z,1018.8
2017-09-27T02:41:33.429Z,1018.7
2017-09-27T02:42:34.845Z,1018.8
2017-09-27T02:43:36.262Z,1018.8
2017-09-27T02:44:37.678Z,1018.7
2017-09-27T02:45:39.098Z,1018.7
2017-09-27T02:46:40.517Z,1018.7
2017-09-27T02:47:41.934Z,1018.7
2017-09-27T02:48:43.486Z,1018.7
2017-09-27T02:49:44.904Z,1018.7
2017-09-27T02:50:46.323Z,1018.7
2017-09-27T02:51:47.749Z,1018.7
2017-09-27T02:52:49.157Z,1018.7
2017-09-27T02:53:50.574Z,1018.7
2017-09-27T02:54:51.989Z,1018.6
2017-09-27T02:55:53.403Z,1018.7
2017-09-27T02:56:54.819Z,1018.7
2017-09-27T02:57:56.235Z,1018.7
2017-09-27T02:58:57.652Z,1018.7
2017-09-27T02:59:59.070Z,1018.7
2017-09-27T03:01:00.488Z,1018.7
2017-09-27T03:02:01.907Z,1018.7
2017-09-27T03:03:03.324Z,1018.7
2017-09-27T03:04:04.739Z,1018.7
2017-09-27T03:05:06.158Z,1018.7
2017-09-27T03:06:07.575Z,1018.7
2017-09-27T03:07:08.991Z,1018.7
2017-09-27T03:08:10.407Z,1018.7
2017-09-27T03:09:11.823Z,1018.7
2017-09-27T03:10:13.237Z,1018.7
2017-09-27T03:11:14.655Z,1018.7
2017-09-27T03:12:16.072Z,1018.7
2017-09-27T03:13:17.488Z,1018.7
2017-09-27T03:14:18.903Z,1018.7
2017-09-27T03:15:20.319Z,1018.7
2017-09-27T03:16:21.738Z,1018.7
2017-09-27T03:17:23.154Z,1018.7
2017-09-27T03:18:24.575Z,1018.7
2017-09-27T03:19:26.002Z,1018.7
2017-09-27T03:20:27.414Z,1018.7
2017-09-27T03:21:28.833Z,1018.7
2017-09-27T03:22:30.257Z,1018.6
2017-09-27T03:23:31.663Z,1018.6
2017-09-27T03:24:33.079Z,1018.7
2017-09-27T03:25:34.494Z,1018.7
2017-09-27T03:26:35.911Z,1018.7
2017-09-27T03:27:37.325Z,1018.7
2017-09-27T03:28:38.747Z,1018.7
2017-09-27T03:29:40.157Z,1018.7
2017-09-27T03:30:41.575Z,1018.7
2017-09-27T03:31:42.991Z,1018.7
2017-09-27T03:32:44.408Z,1018.7
2017-09-27T03:33:45.825Z,1018.7
2017-09-27T03:34:47.241Z,1018.7
2017-09-27T03:35:48.657Z,1018.7
2017-09-27T03:36:50.071Z,1018.7
2017-09-27T03:37:51.487Z,1018.7
2017-09-27T03:38:52.904Z,1018.7
2017-09-27T03:39:54.319Z,1018.6
2017-09-27T03:40:55.733Z,1018.7
2017-09-27T03:41:57.153Z,1018.7
2017-09-27T03:42:58.570Z,1018.7
2017-09-27T03:43:59.987Z,1018.7
2017-09-27T03:45:01.402Z,1018.7
2017-09-27T03:46:02.826Z,1018.7
2017-09-27T03:47:04.233Z,1018.7
2017-09-27T03:48:05.652Z,1018.7
2017-09-27T03:49:07.065Z,1018.7
2017-09-27T03:50:08.475Z,1018.7
2017-09-27T03:51:09.901Z,1018.7
2017-09-27T03:52:11.318Z,1018.6
2017-09-27T03:53:12.733Z,1018.6
2017-09-27T03:54:14.151Z,1018.6
2017-09-27T03:55:15.568Z,1018.7
2017-09-27T03:56:16.986Z,1018.6
2017-09-27T03:57:18.404Z,1018.6
2017-09-27T03:58:19.821Z,1018.6
2017-09-27T03:59:21.238Z,1018.6
2017-09-27T04:00:22.651Z,1018.6
2017-09-27T04:01:24.073Z,1018.6
2017-09-27T04:02:25.492Z,1018.6
2017-09-27T04:03:26.906Z,1018.6
2017-09-27T04:04:28.326Z,1018.6
2017-09-27T04:05:29.742Z,1018.6
2017-09-27T04:06:31.161Z,1018.6
2017-09-27T04:07:32.580Z,1018.6
2017-09-27T04:08:33.996Z,1018.6
2017-09-27T04:09:35.414Z,1018.6
2017-09-27T04:10:36.830Z,1018.6
2017-09-27T04:11:38.245Z,1018.6
2017-09-27T04:12:39.664Z,1018.6
2017-09-27T04:13:41.078Z,1018.6
2017-09-27T04:14:42.495Z,1018.6
2017-09-27T04:15:43.913Z,1018.6
2017-09-27T04:16:45.330Z,1018.6
2017-09-27T04:17:46.751Z,1018.6
2017-09-27T04:18:48.168Z,1018.6
2017-09-27T04:19:49.586Z,1018.6
2017-09-27T04:20:51.005Z,1018.6
2017-09-27T04:21:52.418Z,1018.6
2017-09-27T04:22:53.835Z,1018.6
2017-09-27T04:23:55.248Z,1018.6
2017-09-27T04:24:56.687Z,1018.6
2017-09-27T04:25:58.104Z,1018.6
2017-09-27T04:26:59.522Z,1018.6
2017-09-27T04:28:00.940Z,1018.6
2017-09-27T04:29:02.368Z,1018.6
2017-09-27T04:30:03.782Z,1018.6
2017-09-27T04:31:05.199Z,1018.6
2017-09-27T04:32:06.614Z,1018.6
2017-09-27T04:33:08.031Z,1018.6
2017-09-27T04:34:09.446Z,1018.6
2017-09-27T04:35:10.863Z,1018.6
2017-09-27T04:36:12.280Z,1018.6
2017-09-27T04:37:13.699Z,1018.6
2017-09-27T04:38:15.114Z,1018.7
2017-09-27T04:39:16.529Z,1018.7
2017-09-27T04:40:17.990Z,1018.7
2017-09-27T04:41:19.406Z,1018.6
2017-09-27T04:42:20.822Z,1018.7
2017-09-27T04:43:22.238Z,1018.6
2017-09-27T04:44:23.663Z,1018.6
2017-09-27T04:45:25.068Z,1018.6
2017-09-27T04:46:26.484Z,1018.6
2017-09-27T04:47:27.900Z,1018.6
2017-09-27T04:48:29.314Z,1018.6
2017-09-27T04:49:30.731Z,1018.6
2017-09-27T04:50:32.143Z,1018.6
2017-09-27T04:51:33.561Z,1018.6
2017-09-27T04:52:34.975Z,1018.6
2017-09-27T04:53:36.391Z,1018.6
2017-09-27T04:54:37.808Z,1018.6
2017-09-27T04:55:39.223Z,1018.6
2017-09-27T04:56:40.640Z,1018.6
2017-09-27T04:57:42.054Z,1018.7
2017-09-27T04:58:43.569Z,1018.6
2017-09-27T04:59:44.987Z,1018.7
2017-09-27T05:00:46.407Z,1018.7
2017-09-27T05:01:47.833Z,1018.7
2017-09-27T05:02:49.250Z,1018.7
2017-09-27T05:03:50.664Z,1018.7
2017-09-27T05:04:52.079Z,1018.7
2017-09-27T05:05:53.497Z,1018.7
2017-09-27T05:06:54.914Z,1018.7
2017-09-27T05:07:56.327Z,1018.7
2017-09-27T05:08:57.744Z,1018.7
2017-09-27T05:09:59.157Z,1018.7
2017-09-27T05:11:00.577Z,1018.7
2017-09-27T05:12:01.994Z,1018.7
2017-09-27T05:13:03.409Z,1018.7
2017-09-27T05:14:04.834Z,1018.7
2017-09-27T05:15:06.253Z,1018.7
2017-09-27T05:16:07.672Z,1018.8
2017-09-27T05:17:09.087Z,1018.7
2017-09-27T05:18:10.503Z,1018.7
2017-09-27T05:19:11.919Z,1018.7
2017-09-27T05:20:13.337Z,1018.8
2017-09-27T05:21:14.756Z,1018.7
2017-09-27T05:22:16.168Z,1018.7
2017-09-27T05:23:17.586Z,1018.8
2017-09-27T05:24:19.013Z,1018.8
2017-09-27T05:25:20.425Z,1018.8
2017-09-27T05:26:21.846Z,1018.8
2017-09-27T05:27:23.258Z,1018.7
2017-09-27T05:28:24.672Z,1018.8
2017-09-27T05:29:26.089Z,1018.8
2017-09-27T05:30:27.503Z,1018.8
2017-09-27T05:31:28.964Z,1018.8
2017-09-27T05:32:30.413Z,1018.8
2017-09-27T05:33:31.824Z,1018.9
2017-09-27T05:34:33.243Z,1018.9
2017-09-27T05:35:34.660Z,1018.9
2017-09-27T05:36:36.109Z,1018.9
2017-09-27T05:37:37.493Z,1018.9
2017-09-27T05:38:38.907Z,1018.9
2017-09-27T05:39:40.324Z,1018.9
2017-09-27T05:40:41.734Z,1018.9
2017-09-27T05:41:43.159Z,1018.9
2017-09-27T05:42:44.575Z,1018.9
2017-09-27T05:43:45.993Z,1018.9
2017-09-27T05:44:47.411Z,1019.0
2017-09-27T05:45:48.830Z,1019.0
2017-09-27T05:46:50.247Z,1019.0
2017-09-27T05:47:51.662Z,1019.0
2017-09-27T05:48:53.082Z,1019.0
2017-09-27T05:49:54.497Z,1019.0
2017-09-27T05:50:55.917Z,1019.0
2017-09-27T05:51:57.331Z,1019.0
2017-09-27T05:52:58.746Z,1019.0
2017-09-27T05:54:00.166Z,1019.0
2017-09-27T05:55:01.581Z,1019.0
2017-09-27T05:56:03.002Z,1019.0
2017-09-27T05:57:04.419Z,1019.1
2017-09-27T05:58:05.834Z,1019.0
2017-09-27T05:59:07.249Z,1019.0
2017-09-27T06:00:08.679Z,1019.1
2017-09-27T06:01:10.099Z,1019.0
2017-09-27T06:02:11.523Z,1019.1
2017-09-27T06:03:13.189Z,1019.1
2017-09-27T06:04:14.606Z,1019.1
2017-09-27T06:05:16.023Z,1019.1
2017-09-27T06:06:17.442Z,1019.1
2017-09-27T06:07:18.857Z,1019.1
2017-09-27T06:08:20.272Z,1019.1
2017-09-27T06:09:21.691Z,1019.1
2017-09-27T06:10:23.109Z,1019.1
2017-09-27T06:11:24.530Z,1019.1
2017-09-27T06:12:25.945Z,1019.1
2017-09-27T06:13:27.364Z,1019.1
2017-09-27T06:14:28.780Z,1019.1
2017-09-27T06:15:30.195Z,1019.1
2017-09-27T06:16:31.613Z,1019.2
2017-09-27T06:17:33.031Z,1019.2
2017-09-27T06:18:34.449Z,1019.1
2017-09-27T06:19:35.867Z,1019.1
2017-09-27T06:20:37.289Z,1019.2
2017-09-27T06:21:38.700Z,1019.1
2017-09-27T06:22:40.122Z,1019.2
2017-09-27T06:23:41.539Z,1019.1
2017-09-27T06:24:42.955Z,1019.1
2017-09-27T06:25:44.378Z,1019.1
2017-09-27T06:26:45.799Z,1019.1
2017-09-27T06:27:47.213Z,1019.1
2017-09-27T06:28:48.633Z,1019.1
2017-09-27T06:29:50.048Z,1019.2
2017-09-27T06:30:51.469Z,1019.2
2017-09-27T06:31:52.886Z,1019.2
2017-09-27T06:32:54.303Z,1019.2
2017-09-27T06:33:55.726Z,1019.2
2017-09-27T06:34:57.141Z,1019.2
2017-09-27T06:35:58.555Z,1019.2
2017-09-27T06:36:59.981Z,1019.2
2017-09-27T06:38:01.394Z,1019.2
2017-09-27T06:39:02.824Z,1019.2
2017-09-27T06:40:04.236Z,1019.2
2017-09-27T06:41:05.648Z,1019.3
2017-09-27T06:42:07.068Z,1019.2
2017-09-27T06:43:08.489Z,1019.2
2017-09-27T06:44:09.905Z,1019.3
2017-09-27T06:45:11.324Z,1019.2
2017-09-27T06:46:12.741Z,1019.3
2017-09-27T06:47:14.163Z,1019.2
2017-09-27T06:48:15.581Z,1019.3
2017-09-27T06:49:16.998Z,1019.3
2017-09-27T06:50:18.415Z,1019.3
2017-09-27T06:51:19.831Z,1019.3
2017-09-27T06:52:21.249Z,1019.2
2017-09-27T06:53:22.667Z,1019.3
2017-09-27T06:54:24.082Z,1019.3
2017-09-27T06:55:25.502Z,1019.3
2017-09-27T06:56:26.956Z,1019.3
2017-09-27T06:57:28.337Z,1019.3
2017-09-27T06:58:29.752Z,1019.3
2017-09-27T06:59:31.168Z,1019.3
2017-09-27T07:00:32.586Z,1019.3
2017-09-27T07:01:34.016Z,1019.3
2017-09-27T07:02:35.433Z,1019.3
2017-09-27T07:03:36.851Z,1019.3
2017-09-27T07:04:38.268Z,1019.3
2017-09-27T07:05:39.684Z,1019.3
2017-09-27T07:06:41.101Z,1019.3
2017-09-27T07:07:42.524Z,1019.3
2017-09-27T07:08:43.985Z,1019.3
2017-09-27T07:09:45.431Z,1019.3
2017-09-27T07:10:46.850Z,1019.3
2017-09-27T07:11:48.270Z,1019.3
2017-09-27T07:12:49.685Z,1019.3
2017-09-27T07:13:51.102Z,1019.3
2017-09-27T07:14:52.520Z,1019.4
2017-09-27T07:15:53.934Z,1019.4
2017-09-27T07:16:55.350Z,1019.3
2017-09-27T07:17:56.775Z,1019.4
2017-09-27T07:18:58.193Z,1019.3
2017-09-27T07:19:59.654Z,1019.4
2017-09-27T07:21:01.067Z,1019.4
2017-09-27T07:22:02.487Z,1019.4
2017-09-27T07:23:03.915Z,1019.4
2017-09-27T07:24:06.090Z,1019.4
2017-09-27T07:25:07.526Z,1019.4
2017-09-27T07:26:08.939Z,1019.4
2017-09-27T07:27:10.356Z,1019.5
2017-09-27T07:28:11.773Z,1019.5
2017-09-27T07:29:13.190Z,1019.5
2017-09-27T07:30:14.611Z,1019.5
2017-09-27T07:31:16.031Z,1019.5
2017-09-27T07:32:17.449Z,1019.6
2017-09-27T07:33:18.865Z,1019.6
2017-09-27T07:34:20.286Z,1019.5
2017-09-27T07:35:21.700Z,1019.6
2017-09-27T07:36:23.120Z,1019.5
2017-09-27T07:37:24.541Z,1019.5
2017-09-27T07:38:25.953Z,1019.6
2017-09-27T07:39:27.372Z,1019.5
2017-09-27T07:40:28.790Z,1019.6
2017-09-27T07:41:30.205Z,1019.5
2017-09-27T07:42:31.621Z,1019.6
2017-09-27T07:43:33.039Z,1019.6
2017-09-27T07:44:34.455Z,1019.6
2017-09-27T07:45:35.885Z,1019.6
2017-09-27T07:46:37.319Z,1019.6
2017-09-27T07:47:38.736Z,1019.5
2017-09-27T07:48:40.154Z,1019.6
2017-09-27T07:49:41.578Z,1019.5
2017-09-27T07:50:42.991Z,1019.5
2017-09-27T07:51:44.406Z,1019.5
2017-09-27T07:52:45.827Z,1019.6
2017-09-27T07:53:47.244Z,1019.6
2017-09-27T07:54:48.662Z,1019.5
2017-09-27T07:55:50.086Z,1019.6
2017-09-27T07:56:51.504Z,1019.6
2017-09-27T07:57:52.920Z,1019.6
2017-09-27T07:58:54.341Z,1019.5
2017-09-27T07:59:55.753Z,1019.6
2017-09-27T08:00:57.171Z,1019.6
2017-09-27T08:01:58.589Z,1019.6
2017-09-27T08:03:00.016Z,1019.6
2017-09-27T08:04:01.440Z,1019.6
2017-09-27T08:05:02.858Z,1019.6
2017-09-27T08:06:04.284Z,1019.6
2017-09-27T08:07:05.702Z,1019.6
2017-09-27T08:08:07.126Z,1019.6
2017-09-27T08:09:08.537Z,1019.6
2017-09-27T08:10:09.953Z,1019.6
2017-09-27T08:11:11.376Z,1019.6
2017-09-27T08:12:12.789Z,1019.6
2017-09-27T08:13:14.209Z,1019.6
2017-09-27T08:14:15.625Z,1019.6
2017-09-27T08:15:17.040Z,1019.6
2017-09-27T08:16:18.457Z,1019.6
2017-09-27T08:17:19.878Z,1019.6
2017-09-27T08:18:21.294Z,1019.6
2017-09-27T08:19:22.713Z,1019.6
2017-09-27T08:20:24.134Z,1019.6
2017-09-27T08:21:25.552Z,1019.6
2017-09-27T08:22:26.989Z,1019.6
2017-09-27T08:23:28.404Z,1019.6
2017-09-27T08:24:29.820Z,1019.7
2017-09-27T08:25:31.238Z,1019.6
2017-09-27T08:26:32.657Z,1019.6
2017-09-27T08:27:34.078Z,1019.6
2017-09-27T08:28:35.497Z,1019.7
2017-09-27T08:29:36.915Z,1019.7
2017-09-27T08:30:38.334Z,1019.7
2017-09-27T08:31:39.752Z,1019.7
2017-09-27T08:32:41.168Z,1019.7
2017-09-27T08:33:42.588Z,1019.7
2017-09-27T08:34:44.006Z,1019.6
2017-09-27T08:35:45.423Z,1019.6
2017-09-27T08:36:46.842Z,1019.6
2017-09-27T08:37:48.257Z,1019.7
2017-09-27T08:38:49.709Z,1019.7
2017-09-27T08:39:51.089Z,1019.6
2017-09-27T08:40:52.522Z,1019.6
2017-09-27T08:41:53.931Z,1019.6
2017-09-27T08:42:55.348Z,1019.6
2017-09-27T08:43:56.765Z,1019.6
2017-09-27T08:44:58.183Z,1019.6
2017-09-27T08:45:59.602Z,1019.6
2017-09-27T08:47:01.020Z,1019.6
2017-09-27T08:48:02.441Z,1019.6
2017-09-27T08:49:03.857Z,1019.6
2017-09-27T08:50:05.277Z,1019.6
2017-09-27T08:51:06.696Z,1019.6
2017-09-27T08:52:08.114Z,1019.6
2017-09-27T08:53:09.536Z,1019.6
2017-09-27T08:54:10.946Z,1019.6
2017-09-27T08:55:12.365Z,1019.6
2017-09-27T08:56:13.783Z,1019.5
2017-09-27T08:57:15.202Z,1019.5
2017-09-27T08:58:16.617Z,1019.5
2017-09-27T08:59:18.032Z,1019.5
2017-09-27T09:00:19.463Z,1019.5
2017-09-27T09:01:20.882Z,1019.5
2017-09-27T09:02:22.302Z,1019.5
2017-09-27T09:03:23.723Z,1019.5
2017-09-27T09:04:25.141Z,1019.5
2017-09-27T09:05:26.557Z,1019.5
2017-09-27T09:06:27.972Z,1019.5
2017-09-27T09:07:29.393Z,1019.5
2017-09-27T09:08:30.810Z,1019.5
2017-09-27T09:09:32.229Z,1019.4
2017-09-27T09:10:33.645Z,1019.5
2017-09-27T09:11:35.068Z,1019.4
2017-09-27T09:12:36.490Z,1019.4
2017-09-27T09:13:37.910Z,1019.5
2017-09-27T09:14:39.328Z,1019.4
2017-09-27T09:15:40.749Z,1019.4
2017-09-27T09:16:42.167Z,1019.4
2017-09-27T09:17:43.589Z,1019.5
2017-09-27T09:18:45.005Z,1019.5
2017-09-27T09:19:46.424Z,1019.5
2017-09-27T09:20:47.839Z,1019.5
2017-09-27T09:21:49.258Z,1019.5
2017-09-27T09:22:50.674Z,1019.5
2017-09-27T09:23:52.099Z,1019.5
2017-09-27T09:24:53.516Z,1019.5
2017-09-27T09:25:54.945Z,1019.5
2017-09-27T09:26:56.356Z,1019.5
2017-09-27T09:27:57.776Z,1019.5
2017-09-27T09:28:59.194Z,1019.5
2017-09-27T09:30:00.614Z,1019.5
2017-09-27T09:31:02.038Z,1019.5
2017-09-27T09:32:03.456Z,1019.5
2017-09-27T09:33:04.872Z,1019.4
2017-09-27T09:34:06.284Z,1019.5
2017-09-27T09:35:07.707Z,1019.4
2017-09-27T09:36:09.127Z,1019.4
2017-09-27T09:37:10.542Z,1019.4
2017-09-27T09:38:11.972Z,1019.4
2017-09-27T09:39:13.380Z,1019.4
2017-09-27T09:40:14.800Z,1019.4
2017-09-27T09:41:16.220Z,1019.4
2017-09-27T09:42:17.638Z,1019.4
2017-09-27T09:43:19.055Z,1019.4
2017-09-27T09:44:20.484Z,1019.4
2017-09-27T09:45:21.901Z,1019.4
2017-09-27T09:46:23.320Z,1019.4
2017-09-27T09:47:24.741Z,1019.4
2017-09-27T09:48:26.162Z,1019.3
2017-09-27T09:49:27.582Z,1019.3
2017-09-27T09:50:29.012Z,1019.3
2017-09-27T09:51:30.428Z,1019.4
2017-09-27T09:52:31.846Z,1019.4
2017-09-27T09:53:33.264Z,1019.4
2017-09-27T09:54:34.681Z,1019.3
2017-09-27T09:55:36.104Z,1019.3
2017-09-27T09:56:37.524Z,1019.3
2017-09-27T09:57:38.937Z,1019.3
2017-09-27T09:58:40.358Z,1019.2
2017-09-27T09:59:41.776Z,1019.3
2017-09-27T10:00:43.194Z,1019.3
2017-09-27T10:01:44.607Z,1019.2
2017-09-27T10:02:46.030Z,1019.2
2017-09-27T10:03:47.450Z,1019.3
2017-09-27T10:04:48.874Z,1019.2
2017-09-27T10:05:50.293Z,1019.2
2017-09-27T10:06:51.714Z,1019.2
2017-09-27T10:07:53.129Z,1019.2
2017-09-27T10:08:54.551Z,1019.3
2017-09-27T10:09:55.971Z,1019.3
2017-09-27T10:10:57.392Z,1019.2
2017-09-27T10:11:58.823Z,1019.3
2017-09-27T10:13:00.247Z,1019.3
2017-09-27T10:14:01.666Z,1019.2
2017-09-27T10:15:03.126Z,1019.2
2017-09-27T10:16:04.553Z,1019.2
2017-09-27T10:17:05.969Z,1019.2
2017-09-27T10:18:07.387Z,1019.3
2017-09-27T10:19:08.812Z,1019.2
2017-09-27T10:20:10.231Z,1019.2
2017-09-27T10:21:11.653Z,1019.2
2017-09-27T10:22:13.074Z,1019.3
2017-09-27T10:23:14.495Z,1019.2
2017-09-27T10:24:15.915Z,1019.2
2017-09-27T10:25:17.333Z,1019.2
2017-09-27T10:26:18.753Z,1019.2
2017-09-27T10:27:20.173Z,1019.2
2017-09-27T10:28:21.594Z,1019.2
2017-09-27T10:29:23.016Z,1019.2
2017-09-27T10:30:24.435Z,1019.2
2017-09-27T10:31:25.860Z,1019.1
2017-09-27T10:32:27.279Z,1019.2
2017-09-27T10:33:28.701Z,1019.2
2017-09-27T10:34:30.123Z,1019.2
2017-09-27T10:35:31.544Z,1019.1
2017-09-27T10:36:32.964Z,1019.2
2017-09-27T10:37:34.381Z,1019.2
2017-09-27T10:38:35.803Z,1019.1
2017-09-27T10:39:37.224Z,1019.1
2017-09-27T10:40:38.646Z,1019.1
2017-09-27T10:41:40.066Z,1019.1
2017-09-27T10:42:41.484Z,1019.1
2017-09-27T10:43:42.906Z,1019.1
2017-09-27T10:44:44.325Z,1019.0
2017-09-27T10:45:45.750Z,1019.1
2017-09-27T10:46:47.168Z,1019.1
2017-09-27T10:47:48.609Z,1019.1
2017-09-27T10:48:50.010Z,1019.0
2017-09-27T10:49:51.431Z,1019.0
2017-09-27T10:50:52.852Z,1019.0
2017-09-27T10:51:54.272Z,1019.0
2017-09-27T10:52:55.720Z,1019.0
2017-09-27T10:53:57.114Z,1019.0
2017-09-27T10:54:58.534Z,1019.0
2017-09-27T10:55:59.955Z,1019.0
2017-09-27T10:57:01.374Z,1019.0
2017-09-27T10:58:02.785Z,1018.9
2017-09-27T10:59:04.214Z,1018.9
2017-09-27T11:00:05.637Z,1018.9
2017-09-27T11:01:07.062Z,1018.9
2017-09-27T11:02:08.484Z,1018.9
2017-09-27T11:03:09.908Z,1018.9
2017-09-27T11:04:11.326Z,1018.9
2017-09-27T11:05:12.746Z,1018.9
2017-09-27T11:06:14.168Z,1018.8
2017-09-27T11:07:15.588Z,1018.8
2017-09-27T11:08:17.008Z,1018.8
2017-09-27T11:09:18.427Z,1018.8
2017-09-27T11:10:19.854Z,1018.8
2017-09-27T11:11:21.281Z,1018.8
2017-09-27T11:12:22.697Z,1018.8
2017-09-27T11:13:24.121Z,1018.8
2017-09-27T11:14:25.544Z,1018.8
2017-09-27T11:15:26.968Z,1018.8
2017-09-27T11:16:28.385Z,1018.8
2017-09-27T11:17:29.807Z,1018.8
2017-09-27T11:18:31.230Z,1018.8
2017-09-27T11:19:32.651Z,1018.7
2017-09-27T11:20:34.073Z,1018.7
2017-09-27T11:21:35.496Z,1018.7
2017-09-27T11:22:36.918Z,1018.7
2017-09-27T11:23:38.340Z,1018.7
2017-09-27T11:24:39.767Z,1018.7
2017-09-27T11:25:41.190Z,1018.7
2017-09-27T11:26:42.606Z,1018.7
2017-09-27T11:27:44.028Z,1018.7
2017-09-27T11:28:45.449Z,1018.7
2017-09-27T11:29:46.873Z,1018.7
2017-09-27T11:30:48.294Z,1018.6
2017-09-27T11:31:49.719Z,1018.6
2017-09-27T11:32:51.138Z,1018.6
2017-09-27T11:33:52.559Z,1018.6
2017-09-27T11:34:53.977Z,1018.6
2017-09-27T11:35:55.399Z,1018.6
2017-09-27T11:36:56.823Z,1018.6
2017-09-27T11:37:58.267Z,1018.5
2017-09-27T11:38:59.686Z,1018.5
2017-09-27T11:40:01.109Z,1018.6
2017-09-27T11:41:02.543Z,1018.5
2017-09-27T11:42:03.959Z,1018.5
2017-09-27T11:43:05.382Z,1018.5
2017-09-27T11:44:06.802Z,1018.5
2017-09-27T11:45:08.224Z,1018.6
2017-09-27T11:46:09.642Z,1018.6
2017-09-27T11:47:11.053Z,1018.6
2017-09-27T11:48:12.491Z,1018.5
2017-09-27T11:49:13.913Z,1018.5
2017-09-27T11:50:15.333Z,1018.5
2017-09-27T11:51:16.757Z,1018.5
2017-09-27T11:52:18.177Z,1018.5
2017-09-27T11:53:19.598Z,1018.4
2017-09-27T11:54:21.020Z,1018.5
2017-09-27T11:55:22.442Z,1018.5
2017-09-27T11:56:23.863Z,1018.5
2017-09-27T11:57:25.286Z,1018.5
2017-09-27T11:58:26.710Z,1018.5
2017-09-27T11:59:28.133Z,1018.5
2017-09-27T12:00:29.556Z,1018.4
2017-09-27T12:01:30.979Z,1018.4
2017-09-27T12:02:32.401Z,1018.4
2017-09-27T12:03:33.822Z,1018.5
2017-09-27T12:04:35.247Z,1018.5
2017-09-27T12:05:36.668Z,1018.5
2017-09-27T12:06:38.090Z,1018.4
2017-09-27T12:07:39.510Z,1018.4
2017-09-27T12:08:40.936Z,1018.4
2017-09-27T12:09:42.358Z,1018.4
2017-09-27T12:10:43.779Z,1018.4
2017-09-27T12:11:45.201Z,1018.4
2017-09-27T12:12:46.623Z,1018.4
2017-09-27T12:13:48.044Z,1018.4
2017-09-27T12:14:49.465Z,1018.4
2017-09-27T12:15:50.885Z,1018.4
2017-09-27T12:16:52.308Z,1018.3
2017-09-27T12:17:53.729Z,1018.3
2017-09-27T12:18:55.154Z,1018.3
2017-09-27T12:19:56.570Z,1018.3
2017-09-27T12:20:57.994Z,1018.3
2017-09-27T12:21:59.420Z,1018.3
2017-09-27T12:23:00.838Z,1018.3
2017-09-27T12:24:02.261Z,1018.3
2017-09-27T12:25:03.682Z,1018.3
2017-09-27T12:26:05.103Z,1018.3
2017-09-27T12:27:06.527Z,1018.3
2017-09-27T12:28:07.946Z,1018.3
2017-09-27T12:29:09.369Z,1018.3
2017-09-27T12:30:10.790Z,1018.3
2017-09-27T12:31:12.209Z,1018.2
2017-09-27T12:32:13.631Z,1018.2
2017-09-27T12:33:15.102Z,1018.2
2017-09-27T12:34:16.487Z,1018.2
2017-09-27T12:35:17.910Z,1018.2
2017-09-27T12:36:19.332Z,1018.2
2017-09-27T12:37:20.755Z,1018.2
2017-09-27T12:38:22.175Z,1018.2
2017-09-27T12:39:23.599Z,1018.2
2017-09-27T12:40:25.021Z,1018.2
2017-09-27T12:41:26.443Z,1018.2
2017-09-27T12:42:27.893Z,1018.2
2017-09-27T12:43:29.315Z,1018.2
2017-09-27T12:44:30.734Z,1018.2
2017-09-27T12:45:32.158Z,1018.2
2017-09-27T12:46:33.597Z,1018.2